sensor_id;sensor_type;location;lat;lon;timestamp;P1;durP1;ratioP1;P2;durP2;ratioP2
66127;SDS011;52925;52.436;-1.952;2023-03-21T00:01:06;5.37;;;2.90;;
66127;SDS011;52925;52.436;-1.952;2023-03-21T00:02:27;3.20;;;2.50;;
66127;SDS011;52925;52.436;-1.952;2023-03-21T00:03:47;4.60;;;2.50;;
66127;SDS011;52925;52.436;-1.952;2023-03-21T00:05:09;4.83;;;2.47;;
66127;SDS011;52925;52.436;-1.952;2023-03-21T00:06:30;6.33;;;2.50;;
66127;SDS011;52925;52.436;-1.952;2023-03-21T00:07:52;3.87;;;2.20;;
66127;SDS011;52925;52.436;-1.952;2023-03-21T00:09:13;3.37;;;2.50;;
66127;SDS011;52925;52.436;-1.952;2023-03-21T00:10:34;4.53;;;2.30;;
66127;SDS011;52925;52.436;-1.952;2023-03-21T00:11:55;3.00;;;2.27;;
66127;SDS011;52925;52.436;-1.952;2023-03-21T00:13:19;3.27;;;2.03;;
66127;SDS011;52925;52.436;-1.952;2023-03-21T00:14:39;4.13;;;1.80;;
66127;SDS011;52925;52.436;-1.952;2023-03-21T00:16:02;6.07;;;2.23;;
66127;SDS011;52925;52.436;-1.952;2023-03-21T00:17:25;4.70;;;2.00;;
66127;SDS011;52925;52.436;-1.952;2023-03-21T00:18:52;3.30;;;1.60;;
66127;SDS011;52925;52.436;-1.952;2023-03-21T00:20:13;5.17;;;2.17;;
66127;SDS011;52925;52.436;-1.952;2023-03-21T00:21:33;2.87;;;1.90;;
66127;SDS011;52925;52.436;-1.952;2023-03-21T00:22:57;2.33;;;1.80;;
66127;SDS011;52925;52.436;-1.952;2023-03-21T00:24:19;4.83;;;2.10;;
66127;SDS011;52925;52.436;-1.952;2023-03-21T00:25:40;2.90;;;1.73;;
66127;SDS011;52925;52.436;-1.952;2023-03-21T00:27:01;2.63;;;1.50;;
66127;SDS011;52925;52.436;-1.952;2023-03-21T00:28:21;3.77;;;1.90;;
66127;SDS011;52925;52.436;-1.952;2023-03-21T00:29:42;5.67;;;2.10;;
66127;SDS011;52925;52.436;-1.952;2023-03-21T00:31:03;4.20;;;1.70;;
66127;SDS011;52925;52.436;-1.952;2023-03-21T05:30:49;4.73;;;1.60;;
66127;SDS011;52925;52.436;-1.952;2023-03-21T05:32:11;2.67;;;1.50;;
66127;SDS011;52925;52.436;-1.952;2023-03-21T05:33:31;3.73;;;1.90;;
66127;SDS011;52925;52.436;-1.952;2023-03-21T05:34:52;3.00;;;1.80;;
66127;SDS011;52925;52.436;-1.952;2023-03-21T05:36:14;3.87;;;1.67;;
66127;SDS011;52925;52.436;-1.952;2023-03-21T05:37:34;2.40;;;1.50;;
66127;SDS011;52925;52.436;-1.952;2023-03-21T05:38:56;3.50;;;1.63;;
66127;SDS011;52925;52.436;-1.952;2023-03-21T05:40:17;2.63;;;1.67;;
66127;SDS011;52925;52.436;-1.952;2023-03-21T05:41:39;3.00;;;1.80;;
66127;SDS011;52925;52.436;-1.952;2023-03-21T05:43:01;1.97;;;1.40;;
66127;SDS011;52925;52.436;-1.952;2023-03-21T05:44:20;2.93;;;1.60;;
66127;SDS011;52925;52.436;-1.952;2023-03-21T05:45:41;2.17;;;1.63;;
66127;SDS011;52925;52.436;-1.952;2023-03-21T05:47:04;2.47;;;1.70;;
66127;SDS011;52925;52.436;-1.952;2023-03-21T05:48:32;3.23;;;1.50;;
66127;SDS011;52925;52.436;-1.952;2023-03-21T05:50:04;5.30;;;2.07;;
66127;SDS011;52925;52.436;-1.952;2023-03-21T05:51:27;2.93;;;1.70;;
66127;SDS011;52925;52.436;-1.952;2023-03-21T05:52:49;3.43;;;1.67;;
66127;SDS011;52925;52.436;-1.952;2023-03-21T05:54:10;3.93;;;1.80;;
66127;SDS011;52925;52.436;-1.952;2023-03-21T05:55:37;3.83;;;1.90;;
66127;SDS011;52925;52.436;-1.952;2023-03-21T05:57:03;2.80;;;1.70;;
66127;SDS011;52925;52.436;-1.952;2023-03-21T05:58:49;5.20;;;1.90;;
66127;SDS011;52925;52.436;-1.952;2023-03-21T06:00:11;3.17;;;1.93;;
66127;SDS011;52925;52.436;-1.952;2023-03-21T06:01:35;4.60;;;1.70;;
66127;SDS011;52925;52.436;-1.952;2023-03-21T06:03:05;3.17;;;1.77;;
66127;SDS011;52925;52.436;-1.952;2023-03-21T06:04:38;5.27;;;1.70;;
66127;SDS011;52925;52.436;-1.952;2023-03-21T06:05:59;4.43;;;1.97;;
66127;SDS011;52925;52.436;-1.952;2023-03-21T06:07:27;3.70;;;1.70;;
66127;SDS011;52925;52.436;-1.952;2023-03-21T06:08:49;4.00;;;1.83;;
66127;SDS011;52925;52.436;-1.952;2023-03-21T06:10:10;4.23;;;1.67;;
66127;SDS011;52925;52.436;-1.952;2023-03-21T06:11:34;3.90;;;1.57;;
66127;SDS011;52925;52.436;-1.952;2023-03-21T06:13:13;2.20;;;1.43;;
66127;SDS011;52925;52.436;-1.952;2023-03-21T06:14:35;5.60;;;1.97;;
66127;SDS011;52925;52.436;-1.952;2023-03-21T06:16:07;3.23;;;1.60;;
66127;SDS011;52925;52.436;-1.952;2023-03-21T06:17:28;4.07;;;1.53;;
66127;SDS011;52925;52.436;-1.952;2023-03-21T06:18:55;2.70;;;1.33;;
66127;SDS011;52925;52.436;-1.952;2023-03-21T06:20:39;2.73;;;1.60;;
66127;SDS011;52925;52.436;-1.952;2023-03-21T06:22:03;4.93;;;2.00;;
66127;SDS011;52925;52.436;-1.952;2023-03-21T06:23:26;4.60;;;1.50;;
66127;SDS011;52925;52.436;-1.952;2023-03-21T06:24:48;2.70;;;1.37;;
66127;SDS011;52925;52.436;-1.952;2023-03-21T06:26:10;5.67;;;1.80;;
66127;SDS011;52925;52.436;-1.952;2023-03-21T06:27:33;3.87;;;1.60;;
66127;SDS011;52925;52.436;-1.952;2023-03-21T06:28:54;3.60;;;1.70;;
66127;SDS011;52925;52.436;-1.952;2023-03-21T06:31:53;4.20;;;1.50;;
66127;SDS011;52925;52.436;-1.952;2023-03-21T06:33:14;3.10;;;1.70;;
66127;SDS011;52925;52.436;-1.952;2023-03-21T06:34:37;4.73;;;1.60;;
66127;SDS011;52925;52.436;-1.952;2023-03-21T06:35:59;4.53;;;1.60;;
66127;SDS011;52925;52.436;-1.952;2023-03-21T06:37:23;7.80;;;1.90;;
66127;SDS011;52925;52.436;-1.952;2023-03-21T06:38:45;4.13;;;1.73;;
66127;SDS011;52925;52.436;-1.952;2023-03-21T06:40:07;4.60;;;2.00;;
66127;SDS011;52925;52.436;-1.952;2023-03-21T06:41:29;5.57;;;1.80;;
66127;SDS011;52925;52.436;-1.952;2023-03-21T06:42:54;3.73;;;1.70;;
66127;SDS011;52925;52.436;-1.952;2023-03-21T06:44:16;4.37;;;1.63;;
66127;SDS011;52925;52.436;-1.952;2023-03-21T06:45:45;4.97;;;1.90;;
66127;SDS011;52925;52.436;-1.952;2023-03-21T06:47:06;5.23;;;1.70;;
66127;SDS011;52925;52.436;-1.952;2023-03-21T06:48:27;3.60;;;1.43;;
66127;SDS011;52925;52.436;-1.952;2023-03-21T18:08:53;4.23;;;1.37;;
66127;SDS011;52925;52.436;-1.952;2023-03-21T18:13:15;4.27;;;1.23;;
66127;SDS011;52925;52.436;-1.952;2023-03-21T21:30:26;7.37;;;1.40;;
66127;SDS011;52925;52.436;-1.952;2023-03-21T21:31:49;9.23;;;1.37;;
66127;SDS011;52925;52.436;-1.952;2023-03-21T21:33:10;7.93;;;1.30;;
66127;SDS011;52925;52.436;-1.952;2023-03-21T21:34:32;9.77;;;1.67;;
66127;SDS011;52925;52.436;-1.952;2023-03-21T21:35:54;11.33;;;1.50;;
66127;SDS011;52925;52.436;-1.952;2023-03-21T21:37:15;7.13;;;1.67;;
66127;SDS011;52925;52.436;-1.952;2023-03-21T21:38:35;9.20;;;1.77;;
66127;SDS011;52925;52.436;-1.952;2023-03-21T21:39:56;6.37;;;1.30;;
66127;SDS011;52925;52.436;-1.952;2023-03-21T21:41:16;6.97;;;1.57;;
66127;SDS011;52925;52.436;-1.952;2023-03-21T21:42:39;6.30;;;1.60;;
66127;SDS011;52925;52.436;-1.952;2023-03-21T21:43:59;8.97;;;1.70;;
66127;SDS011;52925;52.436;-1.952;2023-03-21T21:45:20;7.60;;;1.60;;
66127;SDS011;52925;52.436;-1.952;2023-03-21T21:46:43;9.37;;;1.80;;
66127;SDS011;52925;52.436;-1.952;2023-03-21T21:48:04;8.80;;;1.60;;
66127;SDS011;52925;52.436;-1.952;2023-03-21T21:49:26;10.03;;;1.70;;
66127;SDS011;52925;52.436;-1.952;2023-03-21T21:50:47;7.83;;;1.60;;
66127;SDS011;52925;52.436;-1.952;2023-03-21T21:52:10;7.37;;;1.67;;
66127;SDS011;52925;52.436;-1.952;2023-03-21T21:53:31;9.23;;;1.87;;
66127;SDS011;52925;52.436;-1.952;2023-03-21T21:54:51;7.53;;;1.50;;
66127;SDS011;52925;52.436;-1.952;2023-03-21T21:56:12;6.47;;;1.63;;
66127;SDS011;52925;52.436;-1.952;2023-03-21T21:57:33;7.83;;;1.73;;
66127;SDS011;52925;52.436;-1.952;2023-03-21T21:58:53;9.93;;;1.53;;
66127;SDS011;52925;52.436;-1.952;2023-03-21T22:00:19;7.47;;;1.47;;
66127;SDS011;52925;52.436;-1.952;2023-03-21T22:01:42;8.60;;;1.60;;
66127;SDS011;52925;52.436;-1.952;2023-03-21T22:03:04;7.93;;;1.90;;
66127;SDS011;52925;52.436;-1.952;2023-03-21T22:04:27;7.17;;;1.80;;
66127;SDS011;52925;52.436;-1.952;2023-03-21T22:05:46;5.60;;;1.47;;
66127;SDS011;52925;52.436;-1.952;2023-03-21T22:07:07;8.33;;;1.70;;
66127;SDS011;52925;52.436;-1.952;2023-03-21T22:08:32;8.63;;;1.73;;
66127;SDS011;52925;52.436;-1.952;2023-03-21T22:09:53;6.83;;;1.57;;
66127;SDS011;52925;52.436;-1.952;2023-03-21T22:11:14;9.33;;;1.60;;
66127;SDS011;52925;52.436;-1.952;2023-03-21T22:12:36;8.67;;;1.93;;
66127;SDS011;52925;52.436;-1.952;2023-03-21T22:13:57;7.87;;;1.50;;
66127;SDS011;52925;52.436;-1.952;2023-03-21T22:15:18;8.50;;;1.60;;
66127;SDS011;52925;52.436;-1.952;2023-03-21T22:16:40;7.20;;;2.03;;
66127;SDS011;52925;52.436;-1.952;2023-03-21T22:18:02;7.43;;;1.80;;
66127;SDS011;52925;52.436;-1.952;2023-03-21T22:19:23;9.03;;;1.70;;
66127;SDS011;52925;52.436;-1.952;2023-03-21T22:20:44;7.20;;;1.50;;
66127;SDS011;52925;52.436;-1.952;2023-03-21T22:22:05;8.87;;;1.50;;
66127;SDS011;52925;52.436;-1.952;2023-03-21T22:23:25;9.43;;;1.57;;
66127;SDS011;52925;52.436;-1.952;2023-03-21T22:24:46;8.27;;;1.67;;
66127;SDS011;52925;52.436;-1.952;2023-03-21T22:26:08;7.83;;;1.80;;
66127;SDS011;52925;52.436;-1.952;2023-03-21T22:27:29;9.80;;;2.27;;
66127;SDS011;52925;52.436;-1.952;2023-03-21T22:28:49;7.87;;;1.83;;
66127;SDS011;52925;52.436;-1.952;2023-03-21T22:30:11;8.97;;;1.73;;
66127;SDS011;52925;52.436;-1.952;2023-03-21T22:31:35;11.00;;;2.10;;
66127;SDS011;52925;52.436;-1.952;2023-03-21T22:32:56;10.47;;;1.70;;
66127;SDS011;52925;52.436;-1.952;2023-03-21T22:34:19;10.10;;;2.03;;
66127;SDS011;52925;52.436;-1.952;2023-03-21T22:35:39;9.87;;;1.93;;
66127;SDS011;52925;52.436;-1.952;2023-03-21T22:37:00;7.13;;;1.57;;
66127;SDS011;52925;52.436;-1.952;2023-03-21T22:38:21;13.07;;;1.70;;
66127;SDS011;52925;52.436;-1.952;2023-03-21T22:39:42;9.73;;;1.77;;
66127;SDS011;52925;52.436;-1.952;2023-03-21T22:41:03;7.53;;;1.63;;
66127;SDS011;52925;52.436;-1.952;2023-03-21T22:42:26;7.67;;;1.73;;
66127;SDS011;52925;52.436;-1.952;2023-03-21T22:43:47;8.13;;;1.83;;
66127;SDS011;52925;52.436;-1.952;2023-03-21T22:45:09;9.40;;;1.73;;
66127;SDS011;52925;52.436;-1.952;2023-03-21T22:46:31;8.83;;;1.70;;
66127;SDS011;52925;52.436;-1.952;2023-03-21T22:47:52;7.37;;;1.90;;
66127;SDS011;52925;52.436;-1.952;2023-03-21T22:49:13;8.17;;;1.60;;
66127;SDS011;52925;52.436;-1.952;2023-03-21T22:50:35;6.33;;;1.63;;
66127;SDS011;52925;52.436;-1.952;2023-03-21T22:51:56;6.30;;;1.53;;
66127;SDS011;52925;52.436;-1.952;2023-03-21T22:53:17;7.93;;;1.67;;
66127;SDS011;52925;52.436;-1.952;2023-03-21T22:54:38;8.80;;;2.23;;
66127;SDS011;52925;52.436;-1.952;2023-03-21T22:55:59;8.17;;;1.60;;
66127;SDS011;52925;52.436;-1.952;2023-03-21T22:57:20;10.47;;;1.60;;
66127;SDS011;52925;52.436;-1.952;2023-03-21T22:58:41;9.40;;;1.60;;
66127;SDS011;52925;52.436;-1.952;2023-03-21T23:00:02;10.70;;;1.80;;
66127;SDS011;52925;52.436;-1.952;2023-03-21T23:01:30;6.13;;;1.60;;
66127;SDS011;52925;52.436;-1.952;2023-03-21T23:02:50;12.20;;;1.70;;
66127;SDS011;52925;52.436;-1.952;2023-03-21T23:04:11;7.03;;;1.50;;
66127;SDS011;52925;52.436;-1.952;2023-03-21T23:05:32;9.03;;;1.90;;
66127;SDS011;52925;52.436;-1.952;2023-03-21T23:06:58;12.13;;;2.17;;
66127;SDS011;52925;52.436;-1.952;2023-03-21T23:08:19;5.20;;;1.40;;
66127;SDS011;52925;52.436;-1.952;2023-03-21T23:09:39;11.83;;;2.00;;
66127;SDS011;52925;52.436;-1.952;2023-03-21T23:11:04;8.93;;;2.00;;
66127;SDS011;52925;52.436;-1.952;2023-03-21T23:12:25;9.20;;;1.77;;
66127;SDS011;52925;52.436;-1.952;2023-03-21T23:13:45;9.67;;;1.67;;
66127;SDS011;52925;52.436;-1.952;2023-03-21T23:15:07;9.40;;;1.43;;
66127;SDS011;52925;52.436;-1.952;2023-03-21T23:16:28;11.80;;;2.27;;
66127;SDS011;52925;52.436;-1.952;2023-03-21T23:17:49;8.13;;;1.73;;
66127;SDS011;52925;52.436;-1.952;2023-03-21T23:19:09;10.27;;;1.80;;
66127;SDS011;52925;52.436;-1.952;2023-03-21T23:20:30;12.63;;;2.13;;
66127;SDS011;52925;52.436;-1.952;2023-03-21T23:21:51;8.97;;;1.70;;
66127;SDS011;52925;52.436;-1.952;2023-03-21T23:23:15;10.47;;;1.60;;
66127;SDS011;52925;52.436;-1.952;2023-03-21T23:24:36;8.57;;;1.47;;
66127;SDS011;52925;52.436;-1.952;2023-03-21T23:25:56;9.37;;;2.10;;
66127;SDS011;52925;52.436;-1.952;2023-03-21T23:27:17;9.93;;;1.90;;
66127;SDS011;52925;52.436;-1.952;2023-03-21T23:28:37;8.77;;;1.70;;
66127;SDS011;52925;52.436;-1.952;2023-03-21T23:29:58;7.93;;;1.53;;
66127;SDS011;52925;52.436;-1.952;2023-03-21T23:31:20;8.57;;;1.70;;
66127;SDS011;52925;52.436;-1.952;2023-03-21T23:32:42;10.80;;;1.80;;
66127;SDS011;52925;52.436;-1.952;2023-03-21T23:34:03;5.33;;;1.37;;
66127;SDS011;52925;52.436;-1.952;2023-03-21T23:35:23;6.30;;;1.80;;
66127;SDS011;52925;52.436;-1.952;2023-03-21T23:36:44;7.83;;;2.00;;
66127;SDS011;52925;52.436;-1.952;2023-03-21T23:38:05;11.33;;;2.13;;
66127;SDS011;52925;52.436;-1.952;2023-03-21T23:39:27;7.63;;;1.67;;
66127;SDS011;52925;52.436;-1.952;2023-03-21T23:40:47;9.30;;;1.60;;
66127;SDS011;52925;52.436;-1.952;2023-03-21T23:42:08;8.20;;;1.73;;
66127;SDS011;52925;52.436;-1.952;2023-03-21T23:43:29;7.40;;;1.67;;
66127;SDS011;52925;52.436;-1.952;2023-03-21T23:44:50;6.40;;;1.63;;
66127;SDS011;52925;52.436;-1.952;2023-03-21T23:46:11;8.33;;;1.73;;
66127;SDS011;52925;52.436;-1.952;2023-03-21T23:47:33;11.43;;;1.90;;
66127;SDS011;52925;52.436;-1.952;2023-03-21T23:48:53;9.10;;;2.17;;
66127;SDS011;52925;52.436;-1.952;2023-03-21T23:50:14;10.17;;;1.93;;
66127;SDS011;52925;52.436;-1.952;2023-03-21T23:51:34;8.40;;;1.63;;
66127;SDS011;52925;52.436;-1.952;2023-03-21T23:52:55;9.97;;;1.90;;
66127;SDS011;52925;52.436;-1.952;2023-03-21T23:54:15;7.10;;;1.80;;
66127;SDS011;52925;52.436;-1.952;2023-03-21T23:55:37;10.80;;;1.57;;
66127;SDS011;52925;52.436;-1.952;2023-03-21T23:56:59;8.23;;;1.80;;
66127;SDS011;52925;52.436;-1.952;2023-03-21T23:58:21;8.07;;;1.87;;
66127;SDS011;52925;52.436;-1.952;2023-03-21T23:59:41;7.27;;;1.47;;
